Time;durP1;ratioP1;P1;durP2;ratioP2;P2;SDS_P1;SDS_P2;PMS_P1;PMS_P2;Temp;Humidity;BMP_temperature;BMP_pressure;BME280_temperature;BME280_humidity;BME280_pressure;Samples;Min_cycle;Max_cycle;Signal;HPM_P1;HPM_P2
2021/12/02 00:01:28;;;;;;;;;;;;;;;;;;110958;1276;9690;-74
2021/12/02 00:03:56;;;;;;;;;;;;;;;;;;110617;1276;8103;-75
2021/12/02 00:06:24;;;;;;;;;;;;;;;;;;110964;1276;8046;-74
2021/12/02 00:08:52;;;;;;;;;;;;;;;;;;110948;1275;8371;-74
2021/12/02 00:11:20;;;;;;;;;;;;;;;;;;110961;1276;9035;-74
2021/12/02 00:21:54;;;;;;;;;;;;;;;;;;110763;1276;9763;-75
2021/12/02 00:24:24;;;;;;;;;;;;;;;;;;110915;1276;8938;-75
2021/12/02 00:26:53;;;;;;;;;;;;;;;;;;110930;1275;9706;-75
2021/12/02 00:29:22;;;;;;;;;;;;;;;;;;110924;1276;8369;-73
2021/12/02 00:31:52;;;;;;;;;;;;;;;;;;110953;1274;8784;-75
2021/12/02 00:34:22;;;;;;;;;;;;;;;;;;110958;1276;9689;-75
2021/12/02 00:36:50;;;;;;;;;;;;;;;;;;111003;1275;8024;-75
2021/12/02 00:39:20;;;;;;;;;;;;;;;;;;110850;1274;9694;-75
2021/12/02 00:41:48;;;;;;;;;;;;;;;;;;110807;1277;8375;-76
2021/12/02 00:44:18;;;;;;;;;;;;;;;;;;110449;1276;9716;-74
2021/12/02 00:46:46;;;;;;;;;;;;;;;;;;110805;1277;9253;-74
2021/12/02 00:49:17;;;;;;;;;;;;;;;;;;110795;1275;8785;-75
2021/12/02 00:51:46;;;;;;;;;;;;;;;;;;110781;1277;9710;-75
2021/12/02 00:54:14;;;;;;;;;;;;;;;;;;110797;1275;8019;-75
2021/12/02 00:56:42;;;;;;;;;;;;;;;;;;110819;1277;8949;-75
2021/12/02 00:59:10;;;;;;;;;;;;;;;;;;110781;1277;9051;-75
2021/12/02 01:01:38;;;;;;;;;;;;;;;;;;110797;1275;9106;-77
2021/12/02 01:04:12;;;;;;;;;;;;;;;;;;110889;1272;8784;-77
2021/12/02 01:06:41;;;;;;;;;;;;;;;;;;110836;1276;9786;-75
2021/12/02 01:09:10;;;;;;;;;;;;;;;;;;111054;1273;8356;-76
2021/12/02 01:11:38;;;;;;;;;;;;;;;;;;111052;1273;8781;-74
2021/12/02 01:14:10;;;;;;;;;;;;;;;;;;111093;1275;9702;-74
2021/12/02 01:16:38;;;;;;;;;;;;;;;;;;111070;1275;7960;-74
2021/12/02 01:19:07;;;;;;;;;;;;;;;;;;111079;1275;8950;-74
2021/12/02 01:21:37;;;;;;;;;;;;;;;;;;110960;1275;9687;-74
2021/12/02 01:24:09;;;;;;;;;;;;;;;;;;111082;1274;8928;-74
2021/12/02 01:26:37;;;;;;;;;;;;;;;;;;111101;1275;9750;-74
2021/12/02 01:29:05;;;;;;;;;;;;;;;;;;111087;1276;8871;-75
2021/12/02 01:31:35;;;;;;;;;;;;;;;;;;111081;1274;7981;-76
2021/12/02 01:34:07;;;;;;;;;;;;;;;;;;111078;1276;9678;-74
2021/12/02 01:36:37;;;;;;;;;;;;;;;;;;111107;1275;8881;-74
2021/12/02 01:39:07;;;;;;;;;;;;;;;;;;111103;1276;7968;-75
2021/12/02 01:41:43;;;;;;;;;;;;;;;;;;111099;1275;9710;-74
2021/12/02 01:44:13;;;;;;;;;;;;;;;;;;111092;1276;8369;-74
2021/12/02 01:46:42;;;;;;;;;;;;;;;;;;111047;1273;8955;-74
2021/12/02 01:49:11;;;;;;;;;;;;;;;;;;110823;1273;7977;-75
2021/12/02 01:51:50;;;;;;;;;;;;;;;;;;111069;1274;8382;-75
2021/12/02 01:54:29;;;;;;;;;;;;;;;;;;111107;1274;8069;-74
2021/12/02 01:57:04;;;;;;;;;;;;;;;;;;110833;1275;7992;-74
2021/12/02 01:59:35;;;;;;;;;;;;;;;;;;111100;1274;9702;-75
2021/12/02 02:02:05;;;;;;;;;;;;;;;;;;111093;1275;9984;-75
2021/12/02 02:04:34;;;;;;;;;;;;;;;;;;111066;1276;8715;-75
2021/12/02 02:07:06;;;;;;;;;;;;;;;;;;111083;1273;9722;-75
2021/12/02 02:09:36;;;;;;;;;;;;;;;;;;111115;1275;8358;-73
2021/12/02 02:12:06;;;;;;;;;;;;;;;;;;111055;1274;8763;-74
2021/12/02 02:14:35;;;;;;;;;;;;;;;;;;111074;1273;9700;-74
2021/12/02 02:17:13;;;;;;;;;;;;;;;;;;111092;1275;8360;-74
2021/12/02 02:19:42;;;;;;;;;;;;;;;;;;111072;1274;9687;-74
2021/12/02 02:22:11;;;;;;;;;;;;;;;;;;111092;1273;9689;-74
2021/12/02 02:24:40;;;;;;;;;;;;;;;;;;111105;1275;8808;-75
2021/12/02 02:27:07;;;;;;;;;;;;;;;;;;111084;1275;8781;-74
2021/12/02 02:29:35;;;;;;;;;;;;;;;;;;111074;1273;9703;-74
2021/12/02 02:32:03;;;;;;;;;;;;;;;;;;111088;1276;9740;-75
2021/12/02 02:34:31;;;;;;;;;;;;;;;;;;110840;1275;9684;-75
2021/12/02 02:37:03;;;;;;;;;;;;;;;;;;111092;1274;8034;-74
2021/12/02 02:39:33;;;;;;;;;;;;;;;;;;111073;1274;8961;-74
2021/12/02 02:42:04;;;;;;;;;;;;;;;;;;110968;1274;10110;-74
2021/12/02 02:44:33;;;;;;;;;;;;;;;;;;111030;1274;8416;-74
2021/12/02 02:47:02;;;;;;;;;;;;;;;;;;110479;1277;8787;-74
2021/12/02 02:49:30;;;;;;;;;;;;;;;;;;110948;1274;9720;-74
2021/12/02 02:51:58;;;;;;;;;;;;;;;;;;110929;1274;8360;-75
2021/12/02 02:54:26;;;;;;;;;;;;;;;;;;110940;1274;9687;-75
2021/12/02 02:57:16;;;;;;;;;;;;;;;;;;110963;1275;7977;-74
2021/12/02 03:02:23;;;;;;;;;;;;;;;;;;110805;1277;7962;-75
2021/12/02 03:07:29;;;;;;;;;;;;;;;;;;110816;1276;9106;-74
2021/12/02 03:11:01;;;;;;;;;;;;;;;;;;111014;1273;9687;-74
2021/12/02 03:13:12;;;;;;;;;;;;;;;;;;110967;1276;8775;-74
2021/12/02 03:18:30;;;;;;;;;;;;;;;;;;111051;1274;8369;-75
2021/12/02 03:20:57;;;;;;;;;;;;;;;;;;110667;1277;9555;-77
2021/12/02 03:23:26;;;;;;;;;;;;;;;;;;110956;1276;9698;-75
2021/12/02 03:25:53;;;;;;;;;;;;;;;;;;111078;1275;7952;-75
2021/12/02 03:28:21;;;;;;;;;;;;;;;;;;111112;1275;7967;-75
2021/12/02 03:30:49;;;;;;;;;;;;;;;;;;111083;1275;8969;-75
2021/12/02 03:33:17;;;;;;;;;;;;;;;;;;111049;1275;9690;-74
2021/12/02 03:35:45;;;;;;;;;;;;;;;;;;111106;1274;7961;-74
2021/12/02 03:38:29;;;;;;;;;;;;;;;;;;111060;1275;9684;-75
2021/12/02 03:40:57;;;;;;;;;;;;;;;;;;111083;1275;8012;-75
2021/12/02 03:43:27;;;;;;;;;;;;;;;;;;111101;1274;8922;-75
2021/12/02 03:45:56;;;;;;;;;;;;;;;;;;111074;1275;9693;-75
2021/12/02 03:48:23;;;;;;;;;;;;;;;;;;111100;1273;8371;-74
2021/12/02 03:50:51;;;;;;;;;;;;;;;;;;111061;1275;8947;-74
2021/12/02 03:53:19;;;;;;;;;;;;;;;;;;111067;1273;9707;-75
2021/12/02 03:55:48;;;;;;;;;;;;;;;;;;110940;1276;7992;-74
2021/12/02 03:58:16;;;;;;;;;;;;;;;;;;110967;1274;8027;-75
2021/12/02 04:00:44;;;;;;;;;;;;;;;;;;110966;1274;8009;-76
2021/12/02 04:03:11;;;;;;;;;;;;;;;;;;111062;1275;8923;-75
2021/12/02 04:05:40;;;;;;;;;;;;;;;;;;111072;1273;9707;-75
2021/12/02 04:08:11;;;;;;;;;;;;;;;;;;111085;1273;8008;-75
2021/12/02 04:11:54;;;;;;;;;;;;;;;;;;110782;1276;9764;-74
2021/12/02 04:14:04;;;;;;;;;;;;;;;;;;110774;1276;8011;-74
2021/12/02 04:16:51;;;;;;;;;;;;;;;;;;111057;1275;9691;-74
2021/12/02 04:19:22;;;;;;;;;;;;;;;;;;110803;1275;9704;-75
2021/12/02 04:21:52;;;;;;;;;;;;;;;;;;110874;1274;7993;-75
2021/12/02 04:24:21;;;;;;;;;;;;;;;;;;111080;1275;9698;-77
2021/12/02 04:26:49;;;;;;;;;;;;;;;;;;111059;1273;8776;-75
2021/12/02 04:29:17;;;;;;;;;;;;;;;;;;111086;1275;8923;-75
2021/12/02 04:31:47;;;;;;;;;;;;;;;;;;111085;1275;9687;-75
2021/12/02 04:34:17;;;;;;;;;;;;;;;;;;110951;1275;8372;-75
2021/12/02 04:36:46;;;;;;;;;;;;;;;;;;110501;1276;8789;-75
2021/12/02 04:39:17;;;;;;;;;;;;;;;;;;110896;1273;264383;-74
2021/12/02 04:41:45;;;;;;;;;;;;;;;;;;111038;1275;8004;-76
2021/12/02 04:44:18;;;;;;;;;;;;;;;;;;111072;1275;9706;-74
2021/12/02 04:46:46;;;;;;;;;;;;;;;;;;111084;1274;9693;-75
2021/12/02 04:49:14;;;;;;;;;;;;;;;;;;111096;1275;8009;-74
2021/12/02 04:51:42;;;;;;;;;;;;;;;;;;110609;1273;10111;-75
2021/12/02 04:54:10;;;;;;;;;;;;;;;;;;110485;1276;9687;-75
2021/12/02 04:56:38;;;;;;;;;;;;;;;;;;110494;1278;8828;-76
2021/12/02 04:59:06;;;;;;;;;;;;;;;;;;111001;1275;9028;-75
2021/12/02 05:01:34;;;;;;;;;;;;;;;;;;110951;1274;8008;-75
2021/12/02 05:04:02;;;;;;;;;;;;;;;;;;110970;1276;8778;-74
2021/12/02 05:06:30;;;;;;;;;;;;;;;;;;110969;1276;8136;-74
2021/12/02 05:08:58;;;;;;;;;;;;;;;;;;110965;1274;8923;-74
2021/12/02 05:11:26;;;;;;;;;;;;;;;;;;110937;1273;9721;-75
2021/12/02 05:13:54;;;;;;;;;;;;;;;;;;111046;1273;8008;-75
2021/12/02 05:16:21;;;;;;;;;;;;;;;;;;111053;1275;8026;-74
2021/12/02 05:18:50;;;;;;;;;;;;;;;;;;110936;1274;8324;-75
2021/12/02 05:21:18;;;;;;;;;;;;;;;;;;111039;1275;9688;-75
2021/12/02 05:23:51;;;;;;;;;;;;;;;;;;110749;1276;8441;-75
2021/12/02 05:26:20;;;;;;;;;;;;;;;;;;111093;1275;8536;-75
2021/12/02 05:28:48;;;;;;;;;;;;;;;;;;111064;1275;8132;-75
2021/12/02 05:31:16;;;;;;;;;;;;;;;;;;110845;1276;9680;-74
2021/12/02 05:33:44;;;;;;;;;;;;;;;;;;111072;1274;8015;-74
2021/12/02 05:36:12;;;;;;;;;;;;;;;;;;111100;1274;9713;-75
2021/12/02 05:38:40;;;;;;;;;;;;;;;;;;111085;1273;7981;-75
2021/12/02 05:41:08;;;;;;;;;;;;;;;;;;111077;1275;8922;-75
2021/12/02 05:43:36;;;;;;;;;;;;;;;;;;111113;1275;8500;-74
2021/12/02 05:46:05;;;;;;;;;;;;;;;;;;111110;1275;8008;-75
2021/12/02 05:48:33;;;;;;;;;;;;;;;;;;111097;1275;8784;-75
2021/12/02 05:51:01;;;;;;;;;;;;;;;;;;111103;1275;9031;-75
2021/12/02 05:53:29;;;;;;;;;;;;;;;;;;111090;1275;7950;-77
2021/12/02 05:55:57;;;;;;;;;;;;;;;;;;111070;1275;9720;-75
2021/12/02 05:58:25;;;;;;;;;;;;;;;;;;111085;1273;7962;-76
2021/12/02 06:00:54;;;;;;;;;;;;;;;;;;111069;1275;9687;-76
2021/12/02 06:03:22;;;;;;;;;;;;;;;;;;111091;1275;9053;-75
2021/12/02 06:05:53;;;;;;;;;;;;;;;;;;111106;1275;9016;-75
2021/12/02 06:08:21;;;;;;;;;;;;;;;;;;111086;1275;8008;-75
2021/12/02 06:10:49;;;;;;;;;;;;;;;;;;111059;1275;8951;-75
2021/12/02 06:13:17;;;;;;;;;;;;;;;;;;111064;1274;8808;-74
2021/12/02 06:15:46;;;;;;;;;;;;;;;;;;110840;1277;9704;-75
2021/12/02 06:18:14;;;;;;;;;;;;;;;;;;110864;1276;7977;-75
2021/12/02 06:20:42;;;;;;;;;;;;;;;;;;111105;1276;8951;-74
2021/12/02 06:23:10;;;;;;;;;;;;;;;;;;110809;1277;7975;-75
2021/12/02 06:28:06;;;;;;;;;;;;;;;;;;111062;1275;9696;-75
2021/12/02 06:30:34;;;;;;;;;;;;;;;;;;111076;1275;9717;-75
2021/12/02 06:33:03;;;;;;;;;;;;;;;;;;111044;1275;7978;-75
2021/12/02 06:35:31;;;;;;;;;;;;;;;;;;111066;1275;9679;-75
2021/12/02 06:37:59;;;;;;;;;;;;;;;;;;111073;1275;8868;-75
2021/12/02 06:40:27;;;;;;;;;;;;;;;;;;111094;1275;9688;-75
2021/12/02 06:42:55;;;;;;;;;;;;;;;;;;111098;1275;8037;-76
2021/12/02 06:45:23;;;;;;;;;;;;;;;;;;111101;1275;8047;-75
2021/12/02 06:47:52;;;;;;;;;;;;;;;;;;111093;1275;8805;-76
2021/12/02 06:50:20;;;;;;;;;;;;;;;;;;111064;1274;7958;-73
2021/12/02 06:52:50;;;;;;;;;;;;;;;;;;111098;1273;9694;-75
2021/12/02 06:55:19;;;;;;;;;;;;;;;;;;111058;1274;8855;-75
2021/12/02 06:57:47;;;;;;;;;;;;;;;;;;111035;1274;9698;-75
2021/12/02 07:00:17;;;;;;;;;;;;;;;;;;110947;1275;8373;-75
2021/12/02 07:02:45;;;;;;;;;;;;;;;;;;110973;1274;9720;-75
2021/12/02 07:05:15;;;;;;;;;;;;;;;;;;111052;1273;9701;-75
2021/12/02 07:07:45;;;;;;;;;;;;;;;;;;110927;1274;8062;-75
2021/12/02 07:10:19;;;;;;;;;;;;;;;;;;111098;1275;9718;-74
2021/12/02 07:12:51;;;;;;;;;;;;;;;;;;111085;1275;8359;-74
2021/12/02 07:15:24;;;;;;;;;;;;;;;;;;110967;1274;9718;-75
2021/12/02 07:17:59;;;;;;;;;;;;;;;;;;111107;1274;8372;-76
2021/12/02 07:20:33;;;;;;;;;;;;;;;;;;111070;1275;8971;-74
2021/12/02 07:23:03;;;;;;;;;;;;;;;;;;110828;1276;9013;-75
2021/12/02 07:25:32;;;;;;;;;;;;;;;;;;111066;1275;8363;-75
2021/12/02 07:28:01;;;;;;;;;;;;;;;;;;111076;1274;9704;-75
2021/12/02 07:30:29;;;;;;;;;;;;;;;;;;110519;1276;8801;-76
2021/12/02 07:32:59;;;;;;;;;;;;;;;;;;111049;1275;8008;-76
2021/12/02 07:35:27;;;;;;;;;;;;;;;;;;111054;1273;9687;-77
2021/12/02 07:37:58;;;;;;;;;;;;;;;;;;110555;1277;9134;-74
2021/12/02 07:40:36;;;;;;;;;;;;;;;;;;110707;1276;8922;-75
2021/12/02 07:43:05;;;;;;;;;;;;;;;;;;110290;1276;9686;-75
2021/12/02 07:45:36;;;;;;;;;;;;;;;;;;110271;1277;7962;-75
2021/12/02 07:48:05;;;;;;;;;;;;;;;;;;111069;1273;9694;-74
2021/12/02 07:50:36;;;;;;;;;;;;;;;;;;111085;1274;8937;-75
2021/12/02 07:53:06;;;;;;;;;;;;;;;;;;110516;1275;8371;-75
2021/12/02 07:55:40;;;;;;;;;;;;;;;;;;110474;1275;8971;-75
2021/12/02 07:58:33;;;;;;;;;;;;;;;;;;111070;1275;8422;-74
2021/12/02 08:01:02;;;;;;;;;;;;;;;;;;110817;1276;8971;-76
2021/12/02 08:03:30;;;;;;;;;;;;;;;;;;110308;1276;9693;-75
2021/12/02 08:05:59;;;;;;;;;;;;;;;;;;110973;1275;8018;-75
2021/12/02 08:08:27;;;;;;;;;;;;;;;;;;111073;1276;8821;-76
2021/12/02 08:10:57;;;;;;;;;;;;;;;;;;111060;1274;8921;-76
2021/12/02 08:13:30;;;;;;;;;;;;;;;;;;111072;1275;8007;-76
2021/12/02 08:15:58;;;;;;;;;;;;;;;;;;110931;1275;8369;-76
2021/12/02 08:18:29;;;;;;;;;;;;;;;;;;111098;1275;9037;-74
2021/12/02 08:20:57;;;;;;;;;;;;;;;;;;111067;1275;9694;-76
2021/12/02 08:23:26;;;;;;;;;;;;;;;;;;111071;1274;8816;-74
2021/12/02 08:25:55;;;;;;;;;;;;;;;;;;110774;1276;8820;-74
2021/12/02 08:28:23;;;;;;;;;;;;;;;;;;111066;1275;8165;-75
2021/12/02 08:30:51;;;;;;;;;;;;;;;;;;111045;1274;8936;-75
2021/12/02 08:33:19;;;;;;;;;;;;;;;;;;111097;1273;9684;-75
2021/12/02 08:35:48;;;;;;;;;;;;;;;;;;110970;1274;8036;-75
2021/12/02 08:38:18;;;;;;;;;;;;;;;;;;111069;1275;8015;-75
2021/12/02 08:40:49;;;;;;;;;;;;;;;;;;110795;1277;9713;-75
2021/12/02 08:43:20;;;;;;;;;;;;;;;;;;110585;1276;8068;-75
2021/12/02 08:45:58;;;;;;;;;;;;;;;;;;110697;1276;8791;-75
2021/12/02 08:48:29;;;;;;;;;;;;;;;;;;110661;1276;9040;-75
2021/12/02 08:50:58;;;;;;;;;;;;;;;;;;110461;1276;8058;-75
2021/12/02 08:53:26;;;;;;;;;;;;;;;;;;110510;1276;8960;-75
2021/12/02 08:55:54;;;;;;;;;;;;;;;;;;110267;1277;8381;-76
2021/12/02 08:58:24;;;;;;;;;;;;;;;;;;110283;1276;8047;-75
2021/12/02 09:00:52;;;;;;;;;;;;;;;;;;110764;1275;8959;-75
2021/12/02 09:03:20;;;;;;;;;;;;;;;;;;110772;1276;9050;-75
2021/12/02 09:05:49;;;;;;;;;;;;;;;;;;110772;1277;8789;-75
2021/12/02 09:08:19;;;;;;;;;;;;;;;;;;110779;1277;9702;-75
2021/12/02 09:10:47;;;;;;;;;;;;;;;;;;110888;1272;8824;-75
2021/12/02 09:13:16;;;;;;;;;;;;;;;;;;110953;1276;9695;-75
2021/12/02 09:15:44;;;;;;;;;;;;;;;;;;110976;1276;7957;-77
2021/12/02 09:18:12;;;;;;;;;;;;;;;;;;110959;1276;8954;-75
2021/12/02 09:20:42;;;;;;;;;;;;;;;;;;110307;1276;9716;-75
2021/12/02 09:23:13;;;;;;;;;;;;;;;;;;110961;1276;8373;-75
2021/12/02 09:25:43;;;;;;;;;;;;;;;;;;110976;1275;8792;-75
2021/12/02 09:28:12;;;;;;;;;;;;;;;;;;110933;1276;9698;-75
2021/12/02 09:30:40;;;;;;;;;;;;;;;;;;110947;1274;7980;-74
2021/12/02 09:33:08;;;;;;;;;;;;;;;;;;110962;1276;9701;-76
2021/12/02 09:35:37;;;;;;;;;;;;;;;;;;110990;1274;7977;-74
2021/12/02 09:38:08;;;;;;;;;;;;;;;;;;110950;1275;7998;-76
2021/12/02 09:40:40;;;;;;;;;;;;;;;;;;110456;1279;9711;-76
2021/12/02 09:43:11;;;;;;;;;;;;;;;;;;110231;1278;9706;-76
2021/12/02 09:45:40;;;;;;;;;;;;;;;;;;110774;1277;8966;-75
2021/12/02 09:48:09;;;;;;;;;;;;;;;;;;110962;1276;9693;-76
2021/12/02 09:51:04;;;;;;;;;;;;;;;;;;110961;1275;7960;-75
2021/12/02 09:56:34;;;;;;;;;;;;;;;;;;110663;1275;7979;-75
2021/12/02 09:59:11;;;;;;;;;;;;;;;;;;110496;1275;8784;-76
2021/12/02 10:01:59;;;;;;;;;;;;;;;;;;110841;1276;9363;-75
2021/12/02 10:04:29;;;;;;;;;;;;;;;;;;110941;1275;9690;-75
2021/12/02 10:07:09;;;;;;;;;;;;;;;;;;110958;1275;7972;-76
2021/12/02 10:09:42;;;;;;;;;;;;;;;;;;110970;1276;9746;-77
2021/12/02 10:12:19;;;;;;;;;;;;;;;;;;110822;1276;8187;-74
2021/12/02 10:14:51;;;;;;;;;;;;;;;;;;110973;1275;7978;-76
2021/12/02 10:17:33;;;;;;;;;;;;;;;;;;110951;1274;9694;-76
2021/12/02 10:20:34;;;;;;;;;;;;;;;;;;110845;1276;8372;-76
2021/12/02 10:23:03;;;;;;;;;;;;;;;;;;110965;1276;9733;-75
2021/12/02 10:25:32;;;;;;;;;;;;;;;;;;110934;1276;9690;-74
2021/12/02 10:28:04;;;;;;;;;;;;;;;;;;110923;1276;7997;-74
2021/12/02 10:30:34;;;;;;;;;;;;;;;;;;110803;1276;8384;-75
2021/12/02 10:33:02;;;;;;;;;;;;;;;;;;110932;1275;8946;-75
2021/12/02 10:35:57;;;;;;;;;;;;;;;;;;110615;1274;8369;-74
2021/12/02 10:38:33;;;;;;;;;;;;;;;;;;110486;1274;8363;-75
2021/12/02 10:41:03;;;;;;;;;;;;;;;;;;110950;1276;9252;-75
2021/12/02 10:43:31;;;;;;;;;;;;;;;;;;110948;1276;7972;-75
2021/12/02 10:46:12;;;;;;;;;;;;;;;;;;110943;1274;8921;-75
2021/12/02 10:48:51;;;;;;;;;;;;;;;;;;110686;1276;8791;-76
2021/12/02 10:51:38;;;;;;;;;;;;;;;;;;110934;1276;8834;-75
2021/12/02 10:54:12;;;;;;;;;;;;;;;;;;110814;1277;9716;-75
2021/12/02 10:56:43;;;;;;;;;;;;;;;;;;110945;1275;8784;-76
2021/12/02 10:59:24;;;;;;;;;;;;;;;;;;110969;1276;9714;-75
2021/12/02 11:01:59;;;;;;;;;;;;;;;;;;110969;1276;9706;-76
2021/12/02 11:04:35;;;;;;;;;;;;;;;;;;110955;1276;8140;-75
2021/12/02 11:07:10;;;;;;;;;;;;;;;;;;110955;1275;8786;-75
2021/12/02 11:09:40;;;;;;;;;;;;;;;;;;110943;1276;8387;-75
2021/12/02 11:12:11;;;;;;;;;;;;;;;;;;110664;1276;8920;-75
2021/12/02 11:14:53;;;;;;;;;;;;;;;;;;110824;1274;9691;-76
2021/12/02 11:17:22;;;;;;;;;;;;;;;;;;110673;1275;9704;-76
2021/12/02 11:19:51;;;;;;;;;;;;;;;;;;111055;1275;9051;-76
2021/12/02 11:22:23;;;;;;;;;;;;;;;;;;111059;1275;7970;-76
2021/12/02 11:24:52;;;;;;;;;;;;;;;;;;111078;1275;9675;-75
2021/12/02 11:27:23;;;;;;;;;;;;;;;;;;110830;1275;9475;-75
2021/12/02 11:29:50;;;;;;;;;;;;;;;;;;111081;1273;8006;-75
2021/12/02 11:32:23;;;;;;;;;;;;;;;;;;110853;1275;9698;-75
2021/12/02 11:35:05;;;;;;;;;;;;;;;;;;111018;1275;8955;-76
2021/12/02 11:37:34;;;;;;;;;;;;;;;;;;111086;1275;8767;-75
2021/12/02 11:40:25;;;;;;;;;;;;;;;;;;111052;1275;8022;-76
2021/12/02 11:42:54;;;;;;;;;;;;;;;;;;111045;1274;9706;-75
2021/12/02 11:45:27;;;;;;;;;;;;;;;;;;110684;1275;8005;-75
2021/12/02 11:47:56;;;;;;;;;;;;;;;;;;111063;1275;8816;-75
2021/12/02 11:50:25;;;;;;;;;;;;;;;;;;111079;1275;8607;-76
2021/12/02 11:52:54;;;;;;;;;;;;;;;;;;111094;1275;8794;-76
2021/12/02 11:55:25;;;;;;;;;;;;;;;;;;111080;1275;9131;-76
2021/12/02 11:57:54;;;;;;;;;;;;;;;;;;110943;1276;9698;-76
2021/12/02 12:00:24;;;;;;;;;;;;;;;;;;111099;1275;7983;-76
2021/12/02 12:02:55;;;;;;;;;;;;;;;;;;110828;1276;8963;-75
2021/12/02 12:05:29;;;;;;;;;;;;;;;;;;111039;1275;9690;-76
2021/12/02 12:07:57;;;;;;;;;;;;;;;;;;110935;1275;8014;-76
2021/12/02 12:10:26;;;;;;;;;;;;;;;;;;111053;1276;8765;-76
2021/12/02 12:13:11;;;;;;;;;;;;;;;;;;111053;1275;9694;-75
2021/12/02 12:15:41;;;;;;;;;;;;;;;;;;111090;1276;9044;-75
2021/12/02 12:18:10;;;;;;;;;;;;;;;;;;110976;1275;8783;-75
2021/12/02 12:20:54;;;;;;;;;;;;;;;;;;111048;1274;9687;-75
2021/12/02 12:23:33;;;;;;;;;;;;;;;;;;111077;1274;9710;-75
2021/12/02 12:26:22;;;;;;;;;;;;;;;;;;111075;1275;9687;-75
2021/12/02 12:29:06;;;;;;;;;;;;;;;;;;111087;1274;9693;-75
2021/12/02 12:32:29;;;;;;;;;;;;;;;;;;110810;1275;8380;-75
2021/12/02 12:37:21;;;;;;;;;;;;;;;;;;110827;1275;9693;-75
2021/12/02 12:40:08;;;;;;;;;;;;;;;;;;110595;1275;312295;-76
2021/12/02 12:42:48;;;;;;;;;;;;;;;;;;110857;1274;9027;-76
2021/12/02 12:45:25;;;;;;;;;;;;;;;;;;111067;1274;8147;-76
2021/12/02 12:47:55;;;;;;;;;;;;;;;;;;111050;1275;9464;-76
2021/12/02 12:50:29;;;;;;;;;;;;;;;;;;110974;1273;9459;-75
2021/12/02 12:53:04;;;;;;;;;;;;;;;;;;110930;1274;9694;-78
2021/12/02 12:55:34;;;;;;;;;;;;;;;;;;110907;1275;8773;-75
2021/12/02 12:58:12;;;;;;;;;;;;;;;;;;110815;1276;9701;-75
2021/12/02 13:00:49;;;;;;;;;;;;;;;;;;110926;1276;9690;-76
2021/12/02 13:03:22;;;;;;;;;;;;;;;;;;110977;1275;8905;-76
2021/12/02 13:05:54;;;;;;;;;;;;;;;;;;110973;1274;8405;-76
2021/12/02 13:08:31;;;;;;;;;;;;;;;;;;110790;1277;9710;-75
2021/12/02 13:11:02;;;;;;;;;;;;;;;;;;110985;1276;9717;-76
2021/12/02 13:13:33;;;;;;;;;;;;;;;;;;110926;1276;9690;-76
2021/12/02 13:16:08;;;;;;;;;;;;;;;;;;110948;1274;8915;-75
2021/12/02 13:18:40;;;;;;;;;;;;;;;;;;111072;1273;9687;-75
2021/12/02 13:24:25;;;;;;;;;;;;;;;;;;111067;1276;8837;-75
2021/12/02 13:26:53;;;;;;;;;;;;;;;;;;110934;1275;9703;-75
2021/12/02 13:29:26;;;;;;;;;;;;;;;;;;111065;1275;8515;-76
2021/12/02 13:31:59;;;;;;;;;;;;;;;;;;111059;1274;9743;-76
2021/12/02 13:34:31;;;;;;;;;;;;;;;;;;111078;1275;7981;-75
2021/12/02 13:37:25;;;;;;;;;;;;;;;;;;110799;1275;8784;-75
2021/12/02 13:39:53;;;;;;;;;;;;;;;;;;111106;1274;9709;-75
2021/12/02 13:42:21;;;;;;;;;;;;;;;;;;111077;1274;7965;-75
2021/12/02 13:44:53;;;;;;;;;;;;;;;;;;110812;1277;9696;-75
2021/12/02 13:47:33;;;;;;;;;;;;;;;;;;111076;1275;9956;-74
2021/12/02 13:50:07;;;;;;;;;;;;;;;;;;110706;1276;8373;-74
2021/12/02 13:52:38;;;;;;;;;;;;;;;;;;111068;1275;8378;-76
2021/12/02 13:55:16;;;;;;;;;;;;;;;;;;111079;1274;7958;-76
2021/12/02 13:57:47;;;;;;;;;;;;;;;;;;111060;1274;9722;-75
2021/12/02 14:00:23;;;;;;;;;;;;;;;;;;111079;1275;8804;-75
2021/12/02 14:03:12;;;;;;;;;;;;;;;;;;111093;1273;9690;-75
2021/12/02 14:05:43;;;;;;;;;;;;;;;;;;110976;1274;8955;-75
2021/12/02 14:08:31;;;;;;;;;;;;;;;;;;111069;1275;9697;-75
2021/12/02 14:10:59;;;;;;;;;;;;;;;;;;110813;1276;8005;-77
2021/12/02 14:13:31;;;;;;;;;;;;;;;;;;111051;1274;9687;-75
2021/12/02 14:16:04;;;;;;;;;;;;;;;;;;111105;1275;9700;-76
2021/12/02 14:18:36;;;;;;;;;;;;;;;;;;111073;1274;8024;-74
2021/12/02 14:21:09;;;;;;;;;;;;;;;;;;111069;1275;8068;-76
2021/12/02 14:23:39;;;;;;;;;;;;;;;;;;111107;1275;8927;-75
2021/12/02 14:26:12;;;;;;;;;;;;;;;;;;111090;1274;8369;-78
2021/12/02 14:28:46;;;;;;;;;;;;;;;;;;111068;1274;8008;-77
2021/12/02 14:31:46;;;;;;;;;;;;;;;;;;111114;1275;8938;-75
2021/12/02 14:34:25;;;;;;;;;;;;;;;;;;111068;1275;9698;-75
2021/12/02 14:36:55;;;;;;;;;;;;;;;;;;110683;1276;9690;-76
2021/12/02 14:39:25;;;;;;;;;;;;;;;;;;111049;1276;8789;-76
2021/12/02 14:41:58;;;;;;;;;;;;;;;;;;111078;1275;9740;-74
2021/12/02 14:44:29;;;;;;;;;;;;;;;;;;111059;1275;8921;-76
2021/12/02 14:46:58;;;;;;;;;;;;;;;;;;111094;1275;9687;-76
2021/12/02 14:49:43;;;;;;;;;;;;;;;;;;111074;1274;7956;-75
2021/12/02 14:52:17;;;;;;;;;;;;;;;;;;110947;1276;9717;-75
2021/12/02 14:54:55;;;;;;;;;;;;;;;;;;110940;1276;8797;-76
2021/12/02 14:57:27;;;;;;;;;;;;;;;;;;110948;1276;8921;-75
2021/12/02 14:59:54;;;;;;;;;;;;;;;;;;110963;1274;9707;-76
2021/12/02 15:02:38;;;;;;;;;;;;;;;;;;110942;1274;7958;-76
2021/12/02 15:05:11;;;;;;;;;;;;;;;;;;110937;1274;8421;-75
2021/12/02 15:07:50;;;;;;;;;;;;;;;;;;110924;1272;8921;-75
2021/12/02 15:10:26;;;;;;;;;;;;;;;;;;110798;1277;9687;-76
2021/12/02 15:13:06;;;;;;;;;;;;;;;;;;110794;1275;8782;-76
2021/12/02 15:15:41;;;;;;;;;;;;;;;;;;110565;1277;9681;-75
2021/12/02 15:18:09;;;;;;;;;;;;;;;;;;110772;1277;8948;-75
2021/12/02 15:20:59;;;;;;;;;;;;;;;;;;110809;1275;8011;-76
2021/12/02 15:23:33;;;;;;;;;;;;;;;;;;110769;1277;8370;-75
2021/12/02 15:26:13;;;;;;;;;;;;;;;;;;110778;1277;8013;-76
2021/12/02 15:28:47;;;;;;;;;;;;;;;;;;110269;1277;9740;-77
2021/12/02 15:31:19;;;;;;;;;;;;;;;;;;110443;1277;8787;-76
2021/12/02 15:33:48;;;;;;;;;;;;;;;;;;110451;1277;9693;-75
2021/12/02 15:36:19;;;;;;;;;;;;;;;;;;110494;1278;8479;-75
2021/12/02 15:38:53;;;;;;;;;;;;;;;;;;110431;1277;8908;-76
2021/12/02 15:41:23;;;;;;;;;;;;;;;;;;110375;1279;9699;-75
2021/12/02 15:44:05;;;;;;;;;;;;;;;;;;110374;1278;9434;-74
2021/12/02 15:46:41;;;;;;;;;;;;;;;;;;110190;1278;9728;-75
2021/12/02 15:49:11;;;;;;;;;;;;;;;;;;110473;1277;8120;-76
2021/12/02 15:51:39;;;;;;;;;;;;;;;;;;110233;1278;7990;-75
2021/12/02 15:54:10;;;;;;;;;;;;;;;;;;110254;1278;9701;-75
2021/12/02 15:56:38;;;;;;;;;;;;;;;;;;110317;1278;7978;-75
2021/12/02 15:59:08;;;;;;;;;;;;;;;;;;110298;1278;8926;-75
2021/12/02 16:01:49;;;;;;;;;;;;;;;;;;110157;1278;9697;-75
2021/12/02 16:04:35;;;;;;;;;;;;;;;;;;110192;1277;8788;-75
2021/12/02 16:07:06;;;;;;;;;;;;;;;;;;110160;1280;9697;-75
2021/12/02 16:14:59;;;;;;;;;;;;;;;;;;110145;1280;8939;-76
2021/12/02 16:17:29;;;;;;;;;;;;;;;;;;110197;1279;8914;-75
2021/12/02 16:19:57;;;;;;;;;;;;;;;;;;110349;1278;9708;-75
2021/12/02 16:22:28;;;;;;;;;;;;;;;;;;110384;1277;8020;-75
2021/12/02 16:24:57;;;;;;;;;;;;;;;;;;110378;1278;8817;-75
2021/12/02 16:27:25;;;;;;;;;;;;;;;;;;110182;1278;9286;-77
2021/12/02 16:29:54;;;;;;;;;;;;;;;;;;110330;1278;9694;-75
2021/12/02 16:32:22;;;;;;;;;;;;;;;;;;110348;1276;8002;-75
2021/12/02 16:34:50;;;;;;;;;;;;;;;;;;110378;1277;8794;-76
2021/12/02 16:37:19;;;;;;;;;;;;;;;;;;110326;1279;9789;-75
2021/12/02 16:39:59;;;;;;;;;;;;;;;;;;110347;1278;9809;-75
2021/12/02 16:42:27;;;;;;;;;;;;;;;;;;110336;1278;9727;-75
2021/12/02 16:44:56;;;;;;;;;;;;;;;;;;110369;1277;7969;-75
2021/12/02 16:47:23;;;;;;;;;;;;;;;;;;110388;1276;9694;-74
2021/12/02 16:49:51;;;;;;;;;;;;;;;;;;110201;1277;8019;-75
2021/12/02 16:52:19;;;;;;;;;;;;;;;;;;110279;1278;8377;-76
2021/12/02 16:54:48;;;;;;;;;;;;;;;;;;110290;1278;9753;-75
2021/12/02 16:57:15;;;;;;;;;;;;;;;;;;110477;1279;8793;-75
2021/12/02 16:59:45;;;;;;;;;;;;;;;;;;110498;1276;8012;-75
2021/12/02 17:02:14;;;;;;;;;;;;;;;;;;110267;1279;9731;-76
2021/12/02 17:04:42;;;;;;;;;;;;;;;;;;110481;1279;7954;-75
2021/12/02 17:07:10;;;;;;;;;;;;;;;;;;110205;1277;8788;-75
2021/12/02 17:09:38;;;;;;;;;;;;;;;;;;110473;1276;9710;-75
2021/12/02 17:12:07;;;;;;;;;;;;;;;;;;110840;1274;9690;-75
2021/12/02 17:14:36;;;;;;;;;;;;;;;;;;110786;1275;8019;-75
2021/12/02 17:17:04;;;;;;;;;;;;;;;;;;110804;1277;8924;-75
2021/12/02 17:19:32;;;;;;;;;;;;;;;;;;110760;1277;9710;-75
2021/12/02 17:22:00;;;;;;;;;;;;;;;;;;110797;1276;7963;-74
2021/12/02 17:24:28;;;;;;;;;;;;;;;;;;110764;1277;8018;-75
2021/12/02 17:26:56;;;;;;;;;;;;;;;;;;110530;1277;9705;-75
2021/12/02 17:29:24;;;;;;;;;;;;;;;;;;110714;1276;8015;-76
2021/12/02 17:31:55;;;;;;;;;;;;;;;;;;110464;1277;10014;-76
2021/12/02 17:34:23;;;;;;;;;;;;;;;;;;110386;1279;8747;-76
2021/12/02 17:36:51;;;;;;;;;;;;;;;;;;110960;1276;7917;-75
2021/12/02 17:39:19;;;;;;;;;;;;;;;;;;110969;1276;8820;-75
2021/12/02 17:41:47;;;;;;;;;;;;;;;;;;110952;1275;9687;-76
2021/12/02 17:44:15;;;;;;;;;;;;;;;;;;110955;1276;8360;-75
2021/12/02 17:46:43;;;;;;;;;;;;;;;;;;110963;1273;8784;-75
2021/12/02 17:49:12;;;;;;;;;;;;;;;;;;110990;1276;8950;-74